createdAt,value
2022-12-01T00:01:20.773Z,3.63
2022-12-01T00:03:48.035Z,3.48
2022-12-01T00:06:17.258Z,3.41
2022-12-01T00:09:04.456Z,3.56
2022-12-01T00:11:32.868Z,3.57
2022-12-01T00:14:01.716Z,3.63
2022-12-01T00:16:28.968Z,3.67
2022-12-01T00:18:56.411Z,3.62
2022-12-01T00:21:24.797Z,3.43
2022-12-01T00:23:54.600Z,3.52
2022-12-01T00:26:22.852Z,3.62
2022-12-01T00:28:58.074Z,3.70
2022-12-01T00:31:25.718Z,3.70
2022-12-01T00:33:53.106Z,3.76
2022-12-01T00:36:21.433Z,3.79
2022-12-01T00:38:52.815Z,3.80
2022-12-01T00:41:20.323Z,3.71
2022-12-01T00:43:47.499Z,3.79
2022-12-01T00:46:14.627Z,3.68
2022-12-01T00:48:41.973Z,3.59
2022-12-01T00:51:09.029Z,3.58
2022-12-01T00:53:35.986Z,3.79
2022-12-01T00:56:03.159Z,3.59
2022-12-01T00:58:30.129Z,3.60
2022-12-01T01:00:59.341Z,3.69
2022-12-01T01:03:27.274Z,3.70
2022-12-01T01:05:54.214Z,3.73
2022-12-01T01:08:21.330Z,3.61
2022-12-01T01:10:49.079Z,3.24
2022-12-01T01:13:17.163Z,3.80
2022-12-01T01:15:44.086Z,3.63
2022-12-01T01:18:12.254Z,3.81
2022-12-01T01:20:39.540Z,3.67
2022-12-01T01:23:07.243Z,3.67
2022-12-01T01:25:34.163Z,3.51
2022-12-01T01:28:01.222Z,3.52
2022-12-01T01:30:28.514Z,3.61
2022-12-01T01:32:55.617Z,3.60
2022-12-01T01:35:22.891Z,3.55
2022-12-01T01:37:51.124Z,3.68
2022-12-01T01:40:18.885Z,3.64
2022-12-01T01:42:46.527Z,3.58
2022-12-01T01:45:25.905Z,3.65
2022-12-01T01:47:56.071Z,3.54
2022-12-01T01:50:26.674Z,3.59
2022-12-01T01:53:08.110Z,3.63
2022-12-01T01:55:36.349Z,3.56
2022-12-01T01:58:08.621Z,3.40
2022-12-01T02:00:38.476Z,3.55
2022-12-01T02:03:05.477Z,3.30
2022-12-01T02:05:34.932Z,3.58
2022-12-01T02:08:03.781Z,3.44
2022-12-01T02:10:52.667Z,3.55
2022-12-01T02:13:33.817Z,3.54
2022-12-01T02:16:19.475Z,3.50
2022-12-01T02:19:10.657Z,3.57
2022-12-01T02:21:47.142Z,3.49
2022-12-01T02:24:14.013Z,3.41
2022-12-01T02:26:49.271Z,3.54
2022-12-01T02:29:43.868Z,3.64
2022-12-01T02:32:29.990Z,3.64
2022-12-01T02:35:13.028Z,3.72
2022-12-01T02:37:50.139Z,3.62
2022-12-01T02:40:20.002Z,3.54
2022-12-01T02:43:07.977Z,3.50
2022-12-01T02:45:43.823Z,3.32
2022-12-01T02:48:24.981Z,3.51
2022-12-01T02:50:53.748Z,3.38
2022-12-01T02:53:20.994Z,3.54
2022-12-01T02:55:53.224Z,3.59
2022-12-01T02:58:21.205Z,3.43
2022-12-01T03:01:08.471Z,3.56
2022-12-01T03:03:46.233Z,3.59
2022-12-01T03:06:31.877Z,3.47
2022-12-01T03:09:10.865Z,3.40
2022-12-01T03:11:51.736Z,3.52
2022-12-01T03:14:26.710Z,3.59
2022-12-01T03:16:54.688Z,3.63
2022-12-01T03:19:26.611Z,3.50
2022-12-01T03:22:05.248Z,3.50
2022-12-01T03:24:34.353Z,3.37
2022-12-01T03:27:04.125Z,3.36
2022-12-01T03:29:37.053Z,3.48
2022-12-01T03:32:10.576Z,3.52
2022-12-01T03:34:43.700Z,3.50
2022-12-01T03:37:25.232Z,3.56
2022-12-01T03:40:00.476Z,3.41
2022-12-01T03:42:40.684Z,3.44
2022-12-01T03:45:18.173Z,3.43
2022-12-01T03:47:46.138Z,3.43
2022-12-01T03:50:14.402Z,3.57
2022-12-01T03:52:48.719Z,3.56
2022-12-01T03:55:31.478Z,3.57
2022-12-01T03:58:15.128Z,3.51
2022-12-01T04:00:43.979Z,3.48
2022-12-01T04:03:18.825Z,3.41
2022-12-01T04:05:46.518Z,3.28
2022-12-01T04:08:13.462Z,3.44
2022-12-01T04:10:40.350Z,3.44
2022-12-01T04:13:12.266Z,3.27
2022-12-01T04:15:39.283Z,3.38
2022-12-01T04:18:06.239Z,3.35
2022-12-01T04:20:33.236Z,3.40
2022-12-01T04:23:00.241Z,3.43
2022-12-01T04:25:27.244Z,3.35
2022-12-01T04:27:54.104Z,3.41
2022-12-01T04:30:21.067Z,3.37
2022-12-01T04:32:47.964Z,3.27
2022-12-01T04:35:14.972Z,3.39
2022-12-01T04:37:42.062Z,3.44
2022-12-01T04:40:10.113Z,3.48
2022-12-01T04:42:37.054Z,3.49
2022-12-01T04:45:04.396Z,3.44
2022-12-01T04:47:31.412Z,3.48
2022-12-01T04:49:58.474Z,3.45
2022-12-01T04:52:26.695Z,3.39
2022-12-01T04:54:56.359Z,3.35
2022-12-01T04:57:23.278Z,3.38
2022-12-01T04:59:50.364Z,3.29
2022-12-01T05:02:17.775Z,3.33
2022-12-01T05:04:48.209Z,3.50
2022-12-01T05:07:15.242Z,3.21
2022-12-01T05:09:42.390Z,3.25
2022-12-01T05:12:10.263Z,3.32
2022-12-01T05:14:37.185Z,3.29
2022-12-01T05:17:04.152Z,3.40
2022-12-01T05:19:49.716Z,3.38
2022-12-01T05:22:16.850Z,3.29
2022-12-01T05:24:43.729Z,3.25
2022-12-01T05:27:10.810Z,3.22
2022-12-01T05:29:37.746Z,3.28
2022-12-01T05:32:05.096Z,3.16
2022-12-01T05:34:32.066Z,3.21
2022-12-01T05:36:59.053Z,3.23
2022-12-01T05:39:26.009Z,3.28
2022-12-01T05:41:54.111Z,3.07
2022-12-01T05:44:21.060Z,3.30
2022-12-01T05:46:48.088Z,3.31
2022-12-01T05:49:15.217Z,3.36
2022-12-01T05:51:43.975Z,3.34
2022-12-01T05:54:11.032Z,3.26
2022-12-01T05:56:38.087Z,3.32
2022-12-01T05:59:05.059Z,3.32
2022-12-01T06:01:32.022Z,3.32
2022-12-01T06:03:59.145Z,3.26
2022-12-01T06:06:26.218Z,3.36
2022-12-01T06:08:53.106Z,3.36
2022-12-01T06:11:20.146Z,3.40
2022-12-01T06:13:47.276Z,3.35
2022-12-01T06:16:14.360Z,3.34
2022-12-01T06:18:41.375Z,3.28
2022-12-01T06:21:08.339Z,3.29
2022-12-01T06:23:36.101Z,3.20
2022-12-01T06:26:03.613Z,3.23
2022-12-01T06:28:30.689Z,3.31
2022-12-01T06:31:02.776Z,3.22
2022-12-01T06:33:31.738Z,3.35
2022-12-01T06:36:04.409Z,3.41
2022-12-01T06:38:33.609Z,3.36
2022-12-01T06:41:01.133Z,3.35
2022-12-01T06:43:28.666Z,3.26
2022-12-01T06:46:01.185Z,3.33
2022-12-01T06:48:29.673Z,3.26
2022-12-01T06:51:01.354Z,3.45
2022-12-01T06:53:29.265Z,3.44
2022-12-01T06:56:06.178Z,3.26
2022-12-01T06:58:34.980Z,3.25
2022-12-01T07:01:09.291Z,3.39
2022-12-01T07:03:36.425Z,3.29
2022-12-01T07:06:04.054Z,3.44
2022-12-01T07:08:32.427Z,3.32
2022-12-01T07:11:05.387Z,3.49
2022-12-01T07:13:34.025Z,3.44
2022-12-01T07:16:05.196Z,3.54
2022-12-01T07:18:33.559Z,3.59
2022-12-01T07:21:01.680Z,3.54
2022-12-01T07:23:29.156Z,3.52
2022-12-01T07:26:04.792Z,3.46
2022-12-01T07:28:32.694Z,3.51
2022-12-01T07:31:08.353Z,3.42
2022-12-01T07:33:36.142Z,3.81
2022-12-01T07:36:04.608Z,3.78
2022-12-01T07:38:32.840Z,3.77
2022-12-01T07:41:14.134Z,3.77
2022-12-01T07:43:41.782Z,3.85
2022-12-01T07:46:17.239Z,3.91
2022-12-01T07:48:49.076Z,4.04
2022-12-01T07:51:17.054Z,3.93
2022-12-01T07:53:45.965Z,3.84
2022-12-01T07:56:13.491Z,3.91
2022-12-01T07:58:40.650Z,3.95
2022-12-01T08:01:09.062Z,3.95
2022-12-01T08:03:36.851Z,4.11
2022-12-01T08:06:04.846Z,3.96
2022-12-01T08:08:33.918Z,4.00
2022-12-01T08:11:04.872Z,4.04
2022-12-01T08:13:32.334Z,4.18
2022-12-01T08:15:59.321Z,4.08
2022-12-01T08:18:26.364Z,4.25
2022-12-01T08:20:58.430Z,4.16
2022-12-01T08:23:25.504Z,4.34
2022-12-01T08:25:55.767Z,4.25
2022-12-01T08:28:22.878Z,4.01
2022-12-01T08:30:50.016Z,4.04
2022-12-01T08:33:17.063Z,4.12
2022-12-01T08:35:44.083Z,4.17
2022-12-01T08:38:11.434Z,4.16
2022-12-01T08:40:38.596Z,4.24
2022-12-01T08:43:05.846Z,4.31
2022-12-01T08:45:32.953Z,4.36
2022-12-01T08:48:00.148Z,4.30
2022-12-01T08:50:28.163Z,4.40
2022-12-01T08:52:55.367Z,4.21
2022-12-01T08:55:22.807Z,4.23
2022-12-01T08:57:49.797Z,4.31
2022-12-01T09:00:16.999Z,4.51
2022-12-01T09:02:43.887Z,4.42
2022-12-01T09:05:11.051Z,4.38
2022-12-01T09:07:38.003Z,4.29
2022-12-01T09:10:05.901Z,4.59
2022-12-01T09:12:33.086Z,4.56
2022-12-01T09:15:00.105Z,4.51
2022-12-01T09:17:28.575Z,4.47
2022-12-01T09:19:55.654Z,4.44
2022-12-01T09:22:22.926Z,4.57
2022-12-01T09:24:49.891Z,4.60
2022-12-01T09:27:16.807Z,4.81
2022-12-01T09:29:43.792Z,4.68
2022-12-01T09:32:10.818Z,4.80
2022-12-01T09:34:37.794Z,4.79
2022-12-01T09:37:05.341Z,4.97
2022-12-01T09:39:32.325Z,5.03
2022-12-01T09:42:08.848Z,5.15
2022-12-01T09:44:45.476Z,5.31
2022-12-01T09:47:21.271Z,5.38
2022-12-01T09:50:12.684Z,5.64
2022-12-01T09:52:57.832Z,5.82
2022-12-01T09:55:26.515Z,5.68
2022-12-01T09:57:58.900Z,5.72
2022-12-01T10:00:30.461Z,5.59
2022-12-01T10:03:06.978Z,5.64
2022-12-01T10:06:18.592Z,5.56
2022-12-01T10:08:39.757Z,5.75
2022-12-01T10:11:37.534Z,5.78
2022-12-01T10:14:06.633Z,6.08
2022-12-01T10:16:38.939Z,6.22
2022-12-01T10:19:15.803Z,6.31
2022-12-01T10:21:58.054Z,6.29
2022-12-01T10:24:40.845Z,6.26
2022-12-01T10:27:26.737Z,6.58
2022-12-01T10:30:05.683Z,6.46
2022-12-01T10:32:43.825Z,6.75
2022-12-01T10:35:17.595Z,7.06
2022-12-01T10:37:46.420Z,7.25
2022-12-01T10:40:15.763Z,7.66
2022-12-01T10:42:48.763Z,7.48
2022-12-01T10:45:27.089Z,7.64
2022-12-01T10:48:15.864Z,7.95
2022-12-01T10:50:44.056Z,7.65
2022-12-01T10:53:23.259Z,8.18
2022-12-01T10:56:02.973Z,8.31
2022-12-01T10:58:33.957Z,8.43
2022-12-01T11:01:04.926Z,9.01
2022-12-01T11:03:35.236Z,8.77
2022-12-01T11:06:05.090Z,9.71
2022-12-01T11:08:46.423Z,9.45
2022-12-01T11:11:30.745Z,9.70
2022-12-01T11:14:01.525Z,9.61
2022-12-01T11:16:47.717Z,10.58
2022-12-01T11:19:26.811Z,10.60
2022-12-01T11:21:58.386Z,11.14
2022-12-01T11:24:29.636Z,11.23
2022-12-01T11:26:58.970Z,12.40
2022-12-01T11:29:32.130Z,12.24
2022-12-01T11:32:01.350Z,11.70
2022-12-01T11:34:31.676Z,12.59
2022-12-01T11:37:02.958Z,11.86
2022-12-01T11:39:41.536Z,11.90
2022-12-01T11:42:28.705Z,11.02
2022-12-01T11:45:20.521Z,10.41
2022-12-01T11:48:17.807Z,9.25
2022-12-01T11:51:01.883Z,9.44
2022-12-01T11:53:29.057Z,8.60
2022-12-01T11:56:23.873Z,8.58
2022-12-01T11:58:57.812Z,8.37
2022-12-01T12:01:46.777Z,8.79
2022-12-01T12:04:32.123Z,8.65
2022-12-01T12:07:24.821Z,8.69
2022-12-01T12:09:52.003Z,8.81
2022-12-01T12:12:38.032Z,8.32
2022-12-01T12:15:32.657Z,8.35
2022-12-01T12:18:05.903Z,8.31
2022-12-01T12:20:38.757Z,8.35
2022-12-01T12:23:11.808Z,8.38
2022-12-01T12:25:48.176Z,8.00
2022-12-01T12:28:43.166Z,7.98
2022-12-01T12:31:28.877Z,7.46
2022-12-01T12:34:05.131Z,7.67
2022-12-01T12:36:41.240Z,7.98
2022-12-01T12:39:36.750Z,7.96
2022-12-01T12:42:15.056Z,7.90
2022-12-01T12:45:02.525Z,8.07
2022-12-01T12:47:50.164Z,7.82
2022-12-01T12:50:30.615Z,8.08
2022-12-01T19:50:53.437Z,3.30
2022-12-01T19:53:22.422Z,3.22
2022-12-01T19:55:50.394Z,3.16
2022-12-01T19:58:17.876Z,3.07
2022-12-01T20:00:46.666Z,3.15
2022-12-01T20:03:14.284Z,3.10
2022-12-01T20:05:41.874Z,2.80
2022-12-01T20:08:13.651Z,2.96
2022-12-01T20:10:48.789Z,3.02
2022-12-01T20:13:16.354Z,2.93
2022-12-01T20:15:44.440Z,2.90
2022-12-01T20:18:15.288Z,2.59
2022-12-01T20:20:42.841Z,2.82
2022-12-01T20:23:10.403Z,2.86
2022-12-01T20:25:39.414Z,2.81
2022-12-01T20:28:06.519Z,2.81
2022-12-01T20:30:34.870Z,2.82
2022-12-01T20:33:04.064Z,2.83
2022-12-01T20:35:34.000Z,2.85
2022-12-01T20:38:01.216Z,2.74
2022-12-01T20:40:28.716Z,2.84
2022-12-01T20:42:56.182Z,2.81
2022-12-01T20:45:24.086Z,2.81
2022-12-01T20:47:51.545Z,2.77
2022-12-01T20:50:22.134Z,2.84
2022-12-01T20:52:49.805Z,2.76
2022-12-01T20:55:17.385Z,2.37
2022-12-01T20:57:44.678Z,2.48
2022-12-01T21:00:14.045Z,2.48
2022-12-01T21:02:41.134Z,2.53
2022-12-01T21:05:08.559Z,2.45
2022-12-01T21:07:36.174Z,2.37
2022-12-01T21:10:04.737Z,2.33
2022-12-01T21:12:51.238Z,2.22
2022-12-01T21:15:25.788Z,2.10
2022-12-01T21:18:00.885Z,2.23
2022-12-01T21:20:57.555Z,2.48
2022-12-01T21:23:27.228Z,2.45
2022-12-01T21:25:55.472Z,2.31
2022-12-01T21:28:24.872Z,2.23
2022-12-01T21:31:02.172Z,2.43
2022-12-01T21:33:34.502Z,2.30
2022-12-01T21:36:02.827Z,2.19
2022-12-01T21:38:32.076Z,2.24
2022-12-01T21:40:59.194Z,2.31
2022-12-01T21:43:26.433Z,2.36
2022-12-01T21:45:58.205Z,2.24
2022-12-01T21:48:25.152Z,2.20
2022-12-01T21:51:10.504Z,2.10
2022-12-01T21:53:39.304Z,2.17
2022-12-01T21:56:15.311Z,1.97
2022-12-01T21:58:44.229Z,2.18
2022-12-01T22:01:21.164Z,2.28
2022-12-01T22:03:48.501Z,2.18
2022-12-01T22:06:43.463Z,2.18
2022-12-01T22:09:22.252Z,2.19
2022-12-01T22:12:08.627Z,2.22
2022-12-01T22:14:36.922Z,2.23
2022-12-01T22:17:06.885Z,2.11
2022-12-01T22:19:37.824Z,2.10
2022-12-01T22:22:27.338Z,2.06
2022-12-01T22:25:00.320Z,1.86
2022-12-01T22:27:33.050Z,1.81
2022-12-01T22:30:10.510Z,1.95
2022-12-01T22:32:59.510Z,1.93
2022-12-01T22:35:46.424Z,2.07
2022-12-01T22:38:49.479Z,1.97
2022-12-01T22:41:19.510Z,2.04
2022-12-01T22:43:55.681Z,2.07
2022-12-01T22:46:25.992Z,2.09
2022-12-01T22:48:55.923Z,2.05
2022-12-01T22:51:27.701Z,1.88
2022-12-01T22:54:00.574Z,1.89
2022-12-01T22:56:32.837Z,2.13
2022-12-01T22:58:59.938Z,1.86
2022-12-01T23:01:30.480Z,1.76
2022-12-01T23:04:15.635Z,1.82
2022-12-01T23:06:54.597Z,1.93
2022-12-01T23:09:23.930Z,2.04
2022-12-01T23:12:05.945Z,1.91
2022-12-01T23:14:33.738Z,2.17
2022-12-01T23:17:12.528Z,1.93
2022-12-01T23:19:39.486Z,1.99
2022-12-01T23:22:06.450Z,2.11
2022-12-01T23:24:34.319Z,2.18
2022-12-01T23:27:01.988Z,2.13
2022-12-01T23:29:30.581Z,1.97
2022-12-01T23:31:57.754Z,2.09
2022-12-01T23:34:24.921Z,2.07
2022-12-01T23:36:52.018Z,2.07
2022-12-01T23:39:23.473Z,2.18
2022-12-01T23:41:51.565Z,2.08
2022-12-01T23:44:45.757Z,2.22
2022-12-01T23:47:19.849Z,1.88
2022-12-01T23:49:48.203Z,2.08
2022-12-01T23:52:20.035Z,2.04
2022-12-01T23:54:47.213Z,2.08
2022-12-01T23:57:23.752Z,2.08
2022-12-01T23:59:55.232Z,1.79
